Time;durP1;ratioP1;P1;durP2;ratioP2;P2;SDS_P1;SDS_P2;PMS_P1;PMS_P2;Temp;Humidity;BMP_temperature;BMP_pressure;BME280_temperature;BME280_humidity;BME280_pressure;Samples;Min_cycle;Max_cycle;Signal;HPM_P1;HPM_P2
2023/12/20 00:02:05;;;;;;;154.73;141.02;;;26.90;99.90;;;;;;5024622;28;20177;-66
2023/12/20 00:04:32;;;;;;;151.50;138.32;;;26.80;99.90;;;;;;5005173;28;20025;-65
2023/12/20 00:06:58;;;;;;;139.65;126.78;;;26.80;99.90;;;;;;5015240;28;20022;-64
2023/12/20 00:09:25;;;;;;;135.80;123.82;;;26.80;99.90;;;;;;5006547;28;20033;-65
2023/12/20 00:11:51;;;;;;;141.02;128.55;;;26.80;99.90;;;;;;4995732;28;20026;-66
2023/12/20 00:14:18;;;;;;;144.38;131.65;;;26.70;99.90;;;;;;4995596;28;20452;-65
2023/12/20 00:16:44;;;;;;;136.10;123.63;;;26.70;99.90;;;;;;4995577;28;20394;-65
2023/12/20 00:19:11;;;;;;;128.40;117.43;;;26.70;99.90;;;;;;5010155;28;20037;-67
2023/12/20 00:21:37;;;;;;;141.75;129.80;;;26.70;99.90;;;;;;5014759;28;20040;-65
2023/12/20 00:24:04;;;;;;;147.63;134.80;;;26.70;99.90;;;;;;5014884;28;20087;-65
2023/12/20 00:26:31;;;;;;;150.02;137.13;;;26.70;99.90;;;;;;5015249;28;20050;-65
2023/12/20 00:28:57;;;;;;;155.50;141.93;;;26.60;99.90;;;;;;5015014;28;20017;-65
2023/12/20 00:31:24;;;;;;;155.88;142.00;;;26.60;99.90;;;;;;5014339;28;20034;-65
2023/12/20 00:33:50;;;;;;;153.07;138.13;;;26.60;99.90;;;;;;5010100;28;20029;-64
2023/12/20 00:36:16;;;;;;;142.60;130.10;;;26.70;99.90;;;;;;5012349;28;20051;-64
2023/12/20 00:38:43;;;;;;;239.70;214.07;;;26.80;99.90;;;;;;4996769;28;20027;-64
2023/12/20 00:41:10;;;;;;;165.82;149.80;;;26.90;99.90;;;;;;4995429;28;20428;-65
2023/12/20 00:43:36;;;;;;;151.27;138.27;;;26.90;99.90;;;;;;5009840;28;20018;-65
2023/12/20 00:46:03;;;;;;;147.50;135.13;;;26.90;99.90;;;;;;5014338;28;20042;-65
2023/12/20 00:48:31;;;;;;;130.15;119.47;;;26.90;99.90;;;;;;4994982;28;20026;-65
2023/12/20 00:50:58;;;;;;;124.82;114.13;;;27.00;99.90;;;;;;4994953;28;20034;-65
2023/12/20 00:53:24;;;;;;;133.32;121.03;;;27.00;99.90;;;;;;4994737;28;20033;-66
2023/12/20 00:55:51;;;;;;;161.55;147.07;;;27.00;99.90;;;;;;4994981;28;20495;-66
2023/12/20 00:58:17;;;;;;;154.73;141.13;;;27.10;99.90;;;;;;4994862;28;20041;-66
2023/12/20 01:00:44;;;;;;;112.53;102.93;;;27.20;99.90;;;;;;4994871;28;20045;-63
2023/12/20 01:03:10;;;;;;;63.50;57.90;;;27.20;99.90;;;;;;4994779;28;20438;-65
2023/12/20 01:05:37;;;;;;;69.15;61.97;;;27.20;99.90;;;;;;5008216;28;20014;-63
2023/12/20 01:08:03;;;;;;;49.45;44.90;;;27.30;99.90;;;;;;5014397;28;20053;-62
2023/12/20 01:10:30;;;;;;;49.78;45.42;;;27.30;99.90;;;;;;5014470;28;20028;-62
2023/12/20 01:12:56;;;;;;;51.17;46.60;;;27.40;99.90;;;;;;5014111;28;20396;-63
2023/12/20 01:15:23;;;;;;;64.22;58.53;;;27.50;99.90;;;;;;5014010;28;20192;-59
2023/12/20 01:17:50;;;;;;;57.00;52.15;;;27.50;99.90;;;;;;5014103;28;20540;-60
2023/12/20 01:20:16;;;;;;;62.15;56.90;;;27.50;99.90;;;;;;5014265;28;20054;-62
2023/12/20 01:22:45;;;;;;;66.22;60.67;;;27.60;99.90;;;;;;5014419;28;20049;-62
2023/12/20 01:25:12;;;;;;;65.70;60.25;;;27.60;99.90;;;;;;5014189;28;20049;-63
2023/12/20 01:27:38;;;;;;;50.10;45.85;;;27.70;99.90;;;;;;5014023;28;20097;-62
2023/12/20 01:30:05;;;;;;;51.20;47.13;;;27.80;99.90;;;;;;5013963;28;20441;-61
2023/12/20 01:32:32;;;;;;;60.38;55.22;;;27.80;99.90;;;;;;5013310;28;20521;-62
2023/12/20 01:34:58;;;;;;;57.75;52.60;;;27.90;99.90;;;;;;5014026;28;20018;-63
2023/12/20 01:37:26;;;;;;;60.17;55.17;;;27.90;99.90;;;;;;5013745;28;20079;-63
2023/12/20 01:39:53;;;;;;;66.32;60.67;;;28.00;99.90;;;;;;5013577;28;20084;-63
2023/12/20 01:42:19;;;;;;;61.60;56.30;;;28.10;99.90;;;;;;5013674;28;20038;-63
2023/12/20 01:44:45;;;;;;;64.90;59.60;;;28.10;99.90;;;;;;5013623;28;20046;-63
2023/12/20 01:47:13;;;;;;;70.85;64.75;;;28.20;99.90;;;;;;5013601;28;20424;-63
2023/12/20 01:49:40;;;;;;;64.10;58.65;;;28.30;99.90;;;;;;5013903;28;20026;-63
2023/12/20 01:52:08;;;;;;;61.75;56.33;;;28.30;99.90;;;;;;5013553;28;20030;-63
2023/12/20 01:54:36;;;;;;;63.88;58.53;;;28.40;99.90;;;;;;5013453;28;20026;-63
2023/12/20 01:57:03;;;;;;;64.60;58.70;;;28.50;99.90;;;;;;5013658;28;20026;-63
2023/12/20 01:59:31;;;;;;;44.58;40.22;;;28.60;99.90;;;;;;5013470;28;20053;-64
2023/12/20 02:01:57;;;;;;;59.05;53.92;;;28.70;99.90;;;;;;5011658;28;20030;-63
2023/12/20 02:04:24;;;;;;;51.03;46.00;;;28.70;99.90;;;;;;5008082;28;20022;-63
2023/12/20 02:06:53;;;;;;;142.40;126.55;;;28.90;99.90;;;;;;4997160;28;20022;-63
2023/12/20 02:09:20;;;;;;;55.78;50.75;;;28.80;99.90;;;;;;4994047;28;20022;-63
2023/12/20 02:11:46;;;;;;;42.67;38.92;;;28.90;99.90;;;;;;4993778;28;20054;-64
2023/12/20 02:14:13;;;;;;;59.20;54.38;;;28.90;99.90;;;;;;4994184;28;20030;-63
2023/12/20 02:16:40;;;;;;;47.63;43.67;;;29.00;99.90;;;;;;4993612;28;20038;-63
2023/12/20 02:19:14;;;;;;;79.10;72.22;;;29.10;99.90;;;;;;4993782;28;20034;-62
2023/12/20 02:21:40;;;;;;;66.07;60.58;;;29.10;99.90;;;;;;4993603;28;20037;-61
2023/12/20 02:24:07;;;;;;;60.55;55.50;;;29.10;99.90;;;;;;4993759;28;20025;-63
2023/12/20 02:26:34;;;;;;;136.00;118.60;;;29.20;99.90;;;;;;4993975;28;20536;-63
2023/12/20 02:29:01;;;;;;;55.90;51.42;;;29.20;99.90;;;;;;4993612;28;20084;-62
2023/12/20 02:31:28;;;;;;;73.22;67.07;;;29.30;99.90;;;;;;4993668;28;20034;-63
2023/12/20 02:33:54;;;;;;;66.20;60.92;;;29.30;99.90;;;;;;4993621;28;20393;-63
2023/12/20 02:36:21;;;;;;;67.82;62.15;;;29.30;99.90;;;;;;4993717;28;20026;-63
2023/12/20 02:38:47;;;;;;;61.17;56.45;;;29.40;99.90;;;;;;4993465;28;20029;-63
2023/12/20 02:41:16;;;;;;;59.30;53.83;;;29.40;99.90;;;;;;4993611;28;20076;-63
2023/12/20 02:43:43;;;;;;;48.00;43.80;;;29.40;99.90;;;;;;4993835;28;20030;-62
2023/12/20 02:46:11;;;;;;;54.88;50.05;;;29.40;99.90;;;;;;5001992;28;20144;-63
2023/12/20 02:48:38;;;;;;;53.80;49.38;;;29.40;99.90;;;;;;5017031;28;20030;-66
2023/12/20 02:51:04;;;;;;;63.53;58.17;;;29.40;99.90;;;;;;5016865;28;20117;-61
2023/12/20 02:53:31;;;;;;;47.05;43.25;;;29.40;99.90;;;;;;5016995;28;20021;-63
2023/12/20 02:55:58;;;;;;;63.67;58.45;;;29.40;99.90;;;;;;5016888;28;20018;-64
2023/12/20 02:58:24;;;;;;;47.08;43.03;;;29.50;99.90;;;;;;5016690;28;20030;-63
2023/12/20 03:00:51;;;;;;;58.17;53.15;;;29.50;99.90;;;;;;5016456;28;20038;-64
2023/12/20 03:03:18;;;;;;;32.33;29.27;;;29.50;99.90;;;;;;5016593;28;20025;-63
2023/12/20 03:05:46;;;;;;;42.65;39.00;;;29.50;99.90;;;;;;5015521;28;20018;-62
2023/12/20 03:08:12;;;;;;;41.75;37.92;;;29.60;99.90;;;;;;5015943;28;20018;-62
2023/12/20 03:10:39;;;;;;;44.55;40.60;;;29.60;99.90;;;;;;5009076;28;20030;-60
2023/12/20 03:13:05;;;;;;;58.15;53.40;;;29.70;99.90;;;;;;4996915;28;20507;-62
2023/12/20 03:15:32;;;;;;;51.75;47.35;;;29.60;99.90;;;;;;5014187;28;20025;-61
2023/12/20 03:17:59;;;;;;;49.00;44.75;;;29.70;99.90;;;;;;5007255;28;20496;-62
2023/12/20 03:20:27;;;;;;;43.15;39.08;;;29.70;99.90;;;;;;4996759;28;20100;-64
2023/12/20 03:22:53;;;;;;;49.25;44.95;;;29.80;99.90;;;;;;4996615;28;20046;-63
2023/12/20 03:25:19;;;;;;;51.88;47.42;;;29.80;99.90;;;;;;4996881;28;20018;-63
2023/12/20 03:27:46;;;;;;;49.92;45.70;;;29.90;99.90;;;;;;4997190;28;20033;-63
2023/12/20 03:30:13;;;;;;;49.95;45.38;;;29.90;99.90;;;;;;4996583;28;20026;-62
2023/12/20 03:32:39;;;;;;;47.65;43.70;;;29.90;99.90;;;;;;4996921;28;20026;-63
2023/12/20 03:35:06;;;;;;;40.75;37.03;;;30.00;99.90;;;;;;5008093;28;20025;-62
2023/12/20 03:37:33;;;;;;;43.22;38.90;;;30.10;99.90;;;;;;5016100;28;20105;-62
2023/12/20 03:39:59;;;;;;;52.38;47.90;;;30.20;99.90;;;;;;5015889;28;20025;-63
2023/12/20 03:42:26;;;;;;;54.47;50.03;;;30.20;99.90;;;;;;5016992;28;20034;-66
2023/12/20 03:44:52;;;;;;;45.78;41.78;;;30.20;99.90;;;;;;5016165;28;20045;-63
2023/12/20 03:47:19;;;;;;;64.95;59.58;;;30.20;99.90;;;;;;5016110;28;20492;-60
2023/12/20 03:49:45;;;;;;;56.83;51.88;;;30.30;99.90;;;;;;5021398;28;20388;-63
2023/12/20 03:52:12;;;;;;;55.17;50.40;;;30.40;99.90;;;;;;5035512;28;20138;-64
2023/12/20 03:54:39;;;;;;;58.58;53.45;;;30.40;99.90;;;;;;5031771;28;20037;-64
2023/12/20 03:57:05;;;;;;;69.15;63.30;;;30.40;99.90;;;;;;5020169;28;20468;-63
2023/12/20 03:59:36;;;;;;;61.53;56.28;;;30.40;99.90;;;;;;5021164;28;20044;-63
2023/12/20 04:02:03;;;;;;;51.63;47.00;;;30.40;99.90;;;;;;5021667;28;20030;-65
2023/12/20 04:04:30;;;;;;;67.63;62.47;;;30.50;99.90;;;;;;5024264;28;20026;-63
2023/12/20 04:06:56;;;;;;;52.67;48.05;;;30.50;99.90;;;;;;5019445;28;20034;-63
2023/12/20 04:09:23;;;;;;;67.57;61.95;;;30.60;99.90;;;;;;5022121;28;20159;-64
2023/12/20 04:11:49;;;;;;;48.75;44.50;;;30.70;99.90;;;;;;5025540;28;20444;-63
2023/12/20 04:14:16;;;;;;;78.85;72.32;;;30.80;99.90;;;;;;5021477;28;20026;-63
2023/12/20 04:16:42;;;;;;;72.82;67.18;;;30.90;99.90;;;;;;5025971;28;20018;-65
2023/12/20 04:19:09;;;;;;;75.75;69.35;;;31.10;99.90;;;;;;5021912;28;20030;-63
2023/12/20 04:21:35;;;;;;;78.05;71.82;;;31.10;99.90;;;;;;5025834;28;20025;-62
2023/12/20 04:24:02;;;;;;;66.32;60.95;;;31.10;99.90;;;;;;5026572;28;20064;-63
2023/12/20 04:26:29;;;;;;;68.90;63.42;;;31.30;99.90;;;;;;5035331;28;20033;-66
2023/12/20 04:28:55;;;;;;;69.75;64.35;;;31.30;99.90;;;;;;5034799;28;20037;-63
2023/12/20 04:31:22;;;;;;;77.53;71.10;;;31.30;99.90;;;;;;5034896;28;20030;-63
2023/12/20 04:33:48;;;;;;;77.35;70.85;;;31.40;99.90;;;;;;5035054;28;20118;-62
2023/12/20 04:36:15;;;;;;;68.03;62.63;;;31.50;99.90;;;;;;5034916;28;20464;-63
2023/12/20 04:38:41;;;;;;;75.00;68.97;;;31.50;99.90;;;;;;5032321;28;20021;-61
2023/12/20 04:41:08;;;;;;;73.10;67.32;;;31.50;99.90;;;;;;5014902;28;20057;-63
2023/12/20 04:43:34;;;;;;;72.57;66.70;;;31.60;99.90;;;;;;5015187;28;20480;-64
2023/12/20 04:46:01;;;;;;;56.95;52.30;;;31.60;99.90;;;;;;5014784;28;20408;-64
2023/12/20 04:48:28;;;;;;;73.45;67.72;;;31.70;99.90;;;;;;5014684;28;20022;-63
2023/12/20 04:50:54;;;;;;;54.25;49.60;;;31.80;99.90;;;;;;5010036;28;20034;-62
2023/12/20 04:53:20;;;;;;;69.90;63.92;;;31.90;99.90;;;;;;5007268;28;20034;-64
2023/12/20 04:55:47;;;;;;;87.63;79.80;;;31.80;99.90;;;;;;5014518;28;20037;-63
2023/12/20 04:58:13;;;;;;;84.68;77.57;;;31.70;99.90;;;;;;5014642;28;20041;-63
2023/12/20 05:00:40;;;;;;;71.32;65.32;;;31.70;99.90;;;;;;5014883;28;20022;-63
2023/12/20 05:03:06;;;;;;;76.00;69.50;;;31.80;99.90;;;;;;5014535;28;20109;-63
2023/12/20 05:05:34;;;;;;;59.55;54.67;;;31.90;99.90;;;;;;5014818;28;20033;-64
2023/12/20 05:08:00;;;;;;;71.13;65.32;;;31.80;99.90;;;;;;5013509;28;20026;-63
2023/12/20 05:10:27;;;;;;;72.10;66.45;;;32.00;99.90;;;;;;5014438;28;20034;-63
2023/12/20 05:12:54;;;;;;;71.97;66.28;;;32.10;99.90;;;;;;5015483;28;20061;-63
2023/12/20 05:15:23;;;;;;;68.78;63.20;;;32.10;99.90;;;;;;5022808;28;20048;-63
2023/12/20 05:17:49;;;;;;;56.90;52.35;;;32.10;99.90;;;;;;5024754;28;20048;-63
2023/12/20 05:20:16;;;;;;;78.53;72.30;;;32.20;99.90;;;;;;5023209;28;20029;-63
2023/12/20 05:22:43;;;;;;;67.63;62.08;;;32.10;99.90;;;;;;5020093;28;20058;-64
2023/12/20 05:25:09;;;;;;;88.78;80.90;;;32.10;99.90;;;;;;5022790;28;20076;-64
2023/12/20 05:27:36;;;;;;;72.45;66.18;;;32.00;99.90;;;;;;5023770;28;20096;-64
2023/12/20 05:30:04;;;;;;;67.68;61.72;;;32.00;99.90;;;;;;5023978;28;20388;-63
2023/12/20 05:32:31;;;;;;;79.68;72.93;;;32.00;99.90;;;;;;5022245;28;20022;-65
2023/12/20 05:34:57;;;;;;;77.00;70.95;;;32.10;99.90;;;;;;5023541;28;20052;-65
2023/12/20 05:37:24;;;;;;;68.68;62.92;;;32.20;99.90;;;;;;5023211;28;20095;-64
2023/12/20 05:39:50;;;;;;;60.15;55.20;;;32.20;99.90;;;;;;5022223;28;20033;-65
2023/12/20 05:42:17;;;;;;;82.78;76.18;;;32.30;99.90;;;;;;5023420;28;20032;-64
2023/12/20 05:44:44;;;;;;;74.03;68.05;;;32.50;99.90;;;;;;5023750;28;20046;-65
2023/12/20 05:47:10;;;;;;;87.53;80.57;;;32.70;99.90;;;;;;5022143;28;20049;-64
2023/12/20 05:49:37;;;;;;;74.10;68.35;;;32.90;99.90;;;;;;5023342;28;20096;-66
2023/12/20 05:52:04;;;;;;;64.20;59.00;;;32.90;99.90;;;;;;5023884;28;20040;-65
2023/12/20 05:54:30;;;;;;;77.47;71.35;;;32.90;99.90;;;;;;5021791;28;20032;-64
2023/12/20 05:56:57;;;;;;;78.47;70.60;;;32.90;99.90;;;;;;5023341;28;20119;-64
2023/12/20 05:59:23;;;;;;;65.47;60.10;;;33.00;99.90;;;;;;5020751;28;20080;-66
2023/12/20 06:01:50;;;;;;;87.93;80.95;;;33.10;99.90;;;;;;5021208;28;20034;-63
2023/12/20 06:04:16;;;;;;;91.88;84.75;;;33.20;99.90;;;;;;5023575;28;20026;-64
2023/12/20 06:06:43;;;;;;;74.95;68.93;;;33.30;99.90;;;;;;5023654;28;20022;-66
2023/12/20 06:09:11;;;;;;;87.32;80.28;;;33.40;99.90;;;;;;5021910;28;20014;-65
2023/12/20 06:11:37;;;;;;;87.00;79.75;;;33.40;99.90;;;;;;5023351;28;20535;-64
2023/12/20 06:14:04;;;;;;;91.65;84.35;;;33.50;99.90;;;;;;5014154;28;20030;-64
2023/12/20 06:16:31;;;;;;;60.22;55.28;;;33.60;99.90;;;;;;5020116;28;20045;-65
2023/12/20 06:18:57;;;;;;;56.97;52.28;;;33.80;99.90;;;;;;5022157;28;20112;-64
2023/12/20 06:21:24;;;;;;;77.07;70.97;;;33.80;99.90;;;;;;5027639;28;20172;-63
2023/12/20 06:23:51;;;;;;;68.50;63.03;;;33.90;99.90;;;;;;5025704;28;20018;-64
2023/12/20 06:26:17;;;;;;;74.90;68.90;;;33.90;99.90;;;;;;5027227;28;20365;-64
2023/12/20 06:28:43;;;;;;;58.42;53.83;;;33.90;99.90;;;;;;5027315;28;20030;-64
2023/12/20 06:31:10;;;;;;;87.80;80.78;;;33.80;99.90;;;;;;5024626;28;20014;-66
2023/12/20 06:33:37;;;;;;;57.63;53.15;;;33.70;99.90;;;;;;5025811;28;20395;-66
2023/12/20 06:36:04;;;;;;;75.38;69.57;;;33.60;99.90;;;;;;5022968;28;20061;-66
2023/12/20 06:38:30;;;;;;;73.70;67.57;;;33.50;99.90;;;;;;5026750;28;20026;-65
2023/12/20 06:40:58;;;;;;;59.08;54.13;;;33.50;99.90;;;;;;5026152;28;20033;-65
2023/12/20 06:43:25;;;;;;;44.83;41.15;;;33.60;99.90;;;;;;5024497;28;20026;-65
2023/12/20 06:45:51;;;;;;;54.60;50.15;;;33.60;99.90;;;;;;5025895;28;20041;-63
2023/12/20 06:48:18;;;;;;;45.83;42.05;;;33.70;99.90;;;;;;5027601;28;20057;-62
2023/12/20 06:50:44;;;;;;;59.55;54.40;;;33.70;99.90;;;;;;5025604;28;20492;-63
2023/12/20 06:53:11;;;;;;;72.60;66.75;;;33.70;99.90;;;;;;5026116;28;20120;-64
2023/12/20 06:55:37;;;;;;;43.60;40.15;;;33.70;99.90;;;;;;5025629;28;20025;-63
2023/12/20 06:58:04;;;;;;;67.20;61.78;;;33.70;99.90;;;;;;5027437;28;20033;-64
2023/12/20 07:00:32;;;;;;;75.38;69.28;;;33.60;99.90;;;;;;5026230;28;20397;-63
2023/12/20 07:02:59;;;;;;;55.00;50.85;;;33.60;99.90;;;;;;5024605;28;20028;-64
2023/12/20 07:05:26;;;;;;;52.38;47.92;;;33.70;99.90;;;;;;5027632;28;20477;-64
2023/12/20 07:07:53;;;;;;;78.90;72.90;;;33.80;99.90;;;;;;5027038;28;20040;-67
2023/12/20 07:10:20;;;;;;;65.97;60.95;;;33.80;99.90;;;;;;5027433;28;20105;-63
2023/12/20 07:12:48;;;;;;;88.00;80.93;;;33.80;99.90;;;;;;5025218;28;20026;-63
2023/12/20 07:15:15;;;;;;;73.18;67.30;;;33.80;99.90;;;;;;5023164;28;20515;-61
2023/12/20 07:17:42;;;;;;;70.07;64.53;;;33.90;99.90;;;;;;5016392;28;20046;-67
2023/12/20 07:20:10;;;;;;;83.47;76.88;;;33.90;99.90;;;;;;5010957;28;20046;-64
2023/12/20 07:22:37;;;;;;;77.82;71.32;;;33.90;99.90;;;;;;4999442;28;20026;-63
2023/12/20 07:25:04;;;;;;;75.60;69.15;;;33.90;99.90;;;;;;5011616;28;20515;-63
2023/12/20 07:27:30;;;;;;;93.55;85.93;;;34.00;99.90;;;;;;5005572;28;20038;-64
2023/12/20 07:29:57;;;;;;;78.13;72.03;;;34.10;99.90;;;;;;5015445;28;20469;-63
2023/12/20 07:32:23;;;;;;;83.65;76.78;;;34.10;99.90;;;;;;5013482;28;20053;-64
2023/12/20 07:34:50;;;;;;;99.72;91.43;;;34.00;99.90;;;;;;5026245;28;20018;-64
2023/12/20 07:37:16;;;;;;;97.63;89.93;;;34.10;99.90;;;;;;5024216;28;20057;-66
2023/12/20 07:39:43;;;;;;;118.82;108.80;;;34.20;99.90;;;;;;5024142;28;20053;-63
2023/12/20 07:42:09;;;;;;;98.03;90.30;;;34.20;99.90;;;;;;5025606;28;20021;-64
2023/12/20 07:44:36;;;;;;;108.40;99.80;;;34.20;99.90;;;;;;5017500;28;20054;-65
2023/12/20 07:47:03;;;;;;;120.88;110.57;;;34.20;99.90;;;;;;5024962;28;20027;-64
2023/12/20 07:49:30;;;;;;;101.72;93.65;;;34.20;99.90;;;;;;5024899;28;20072;-65
2023/12/20 07:51:56;;;;;;;99.35;91.43;;;34.20;99.90;;;;;;5020083;28;20037;-63
2023/12/20 07:54:23;;;;;;;99.75;91.57;;;34.20;99.90;;;;;;5023804;28;20522;-64
2023/12/20 07:56:50;;;;;;;86.07;79.38;;;34.20;99.90;;;;;;5024203;28;20484;-64
2023/12/20 07:59:16;;;;;;;101.25;93.25;;;34.20;99.90;;;;;;5028738;28;20025;-66
2023/12/20 08:01:43;;;;;;;99.07;91.38;;;34.10;99.90;;;;;;5017312;28;20034;-64
2023/12/20 08:04:10;;;;;;;104.22;95.63;;;34.00;99.90;;;;;;5016334;28;20018;-65
2023/12/20 08:06:36;;;;;;;115.18;105.50;;;34.10;99.90;;;;;;5025325;28;20025;-65
2023/12/20 08:09:03;;;;;;;114.13;103.63;;;34.20;99.90;;;;;;5025980;28;20026;-65
2023/12/20 08:11:29;;;;;;;135.27;123.15;;;34.10;99.90;;;;;;5015834;28;20547;-65
2023/12/20 08:13:56;;;;;;;127.15;115.50;;;34.10;99.90;;;;;;5015275;28;20064;-65
2023/12/20 08:16:22;;;;;;;135.50;123.10;;;34.10;99.90;;;;;;4998933;28;20053;-64
2023/12/20 08:18:49;;;;;;;97.30;89.47;;;34.10;99.90;;;;;;5015572;28;20044;-63
2023/12/20 08:21:15;;;;;;;91.03;83.53;;;34.10;99.90;;;;;;4996780;28;20389;-67
2023/12/20 08:23:42;;;;;;;75.13;68.70;;;34.00;99.90;;;;;;5004099;28;20030;-65
2023/12/20 08:26:09;;;;;;;79.20;72.18;;;34.00;99.90;;;;;;5000501;28;20030;-66
2023/12/20 08:28:36;;;;;;;97.30;88.32;;;34.00;99.90;;;;;;5006641;28;20080;-66
2023/12/20 08:31:03;;;;;;;132.55;121.07;;;33.90;99.90;;;;;;5015640;28;20068;-67
2023/12/20 08:33:29;;;;;;;91.75;84.05;;;34.00;99.90;;;;;;5000940;28;20053;-69
2023/12/20 08:35:56;;;;;;;110.35;100.47;;;33.90;99.90;;;;;;5006762;28;20064;-67
2023/12/20 08:38:22;;;;;;;129.73;119.07;;;33.90;99.90;;;;;;5019527;28;20504;-67
2023/12/20 08:40:49;;;;;;;94.88;86.00;;;33.90;99.90;;;;;;5025116;28;20428;-71
2023/12/20 08:43:15;;;;;;;115.28;105.45;;;33.90;99.90;;;;;;5023488;28;20118;-68
2023/12/20 08:45:42;;;;;;;119.50;109.53;;;33.90;99.90;;;;;;5022350;28;20571;-70
2023/12/20 08:48:08;;;;;;;108.80;99.90;;;34.00;99.90;;;;;;5024852;28;20468;-70
2023/12/20 08:50:35;;;;;;;117.88;107.50;;;34.00;99.90;;;;;;5024212;28;21122;-67
2023/12/20 08:53:01;;;;;;;106.82;98.18;;;33.90;99.90;;;;;;5021512;28;20038;-68
2023/12/20 08:55:28;;;;;;;110.60;101.50;;;34.00;99.90;;;;;;5031508;28;20476;-68
2023/12/20 08:57:55;;;;;;;103.43;93.88;;;33.90;99.90;;;;;;5001525;28;20038;-67
2023/12/20 09:00:24;;;;;;;112.70;103.32;;;33.90;99.90;;;;;;4995221;28;20030;-67
2023/12/20 09:02:51;;;;;;;112.43;102.82;;;33.90;99.90;;;;;;5021784;28;20034;-71
2023/12/20 09:05:17;;;;;;;110.82;100.57;;;33.80;99.90;;;;;;5023982;28;20037;-67
2023/12/20 09:07:44;;;;;;;132.45;119.65;;;33.80;99.90;;;;;;5024990;28;20021;-65
2023/12/20 09:10:10;;;;;;;117.57;106.75;;;33.70;99.90;;;;;;5020406;28;20108;-66
2023/12/20 09:12:39;;;;;;;127.90;114.90;;;33.70;99.90;;;;;;5026879;28;20101;-66
2023/12/20 09:15:06;;;;;;;126.63;114.20;;;33.70;99.90;;;;;;5034333;28;20052;-67
2023/12/20 09:17:33;;;;;;;96.28;85.55;;;33.70;99.90;;;;;;5034428;28;20076;-66
2023/12/20 09:19:59;;;;;;;99.07;90.05;;;33.70;99.90;;;;;;5034412;28;20113;-67
2023/12/20 09:22:26;;;;;;;117.22;106.70;;;33.70;99.90;;;;;;5034145;28;20419;-66
2023/12/20 09:24:53;;;;;;;85.57;77.03;;;33.70;99.90;;;;;;5023119;28;20045;-65
2023/12/20 09:27:19;;;;;;;112.88;102.03;;;33.70;99.90;;;;;;5027628;28;20029;-66
2023/12/20 09:29:48;;;;;;;117.18;106.53;;;33.60;99.90;;;;;;5026422;28;20021;-67
2023/12/20 09:32:14;;;;;;;120.85;109.60;;;33.50;99.90;;;;;;5024302;28;20025;-64
2023/12/20 09:34:41;;;;;;;88.63;80.22;;;33.50;99.90;;;;;;5022599;28;20018;-67
2023/12/20 09:37:08;;;;;;;115.72;105.63;;;33.40;99.90;;;;;;5015687;28;20030;-67
2023/12/20 09:39:34;;;;;;;115.03;105.07;;;33.40;99.90;;;;;;5013762;28;20026;-67
2023/12/20 09:42:03;;;;;;;103.22;94.22;;;33.40;99.90;;;;;;5017570;28;20055;-65
2023/12/20 09:44:30;;;;;;;113.72;103.10;;;33.40;99.90;;;;;;5024032;28;20374;-68
2023/12/20 09:46:57;;;;;;;84.43;76.55;;;33.40;99.90;;;;;;5023569;28;20052;-65
2023/12/20 09:49:25;;;;;;;65.65;59.67;;;33.30;99.90;;;;;;5025191;28;20040;-65
2023/12/20 09:51:52;;;;;;;60.80;55.22;;;33.20;99.90;;;;;;5014985;28;20025;-65
2023/12/20 09:54:19;;;;;;;49.90;45.38;;;33.20;99.90;;;;;;5014454;28;20029;-63
2023/12/20 09:56:46;;;;;;;59.05;53.90;;;33.20;99.90;;;;;;5014977;28;20046;-65
2023/12/20 09:59:13;;;;;;;57.67;52.55;;;33.20;99.90;;;;;;5014677;28;20057;-65
2023/12/20 10:01:42;;;;;;;62.25;56.83;;;33.20;99.90;;;;;;5014478;28;20493;-64
2023/12/20 10:04:13;;;;;;;66.97;61.35;;;33.20;99.90;;;;;;5014950;28;20030;-66
2023/12/20 10:19:53;;;;;;;94.68;84.88;;;32.60;99.90;;;;;;5071249;28;20399;-66
2023/12/20 10:22:19;;;;;;;84.63;75.78;;;32.40;99.90;;;;;;5071260;28;20029;-65
2023/12/20 10:24:46;;;;;;;52.47;47.72;;;32.20;99.90;;;;;;5070716;28;20041;-63
2023/12/20 10:27:13;;;;;;;65.22;58.92;;;32.10;99.90;;;;;;5069642;28;20078;-65
2023/12/20 10:29:39;;;;;;;97.85;85.00;;;32.00;99.90;;;;;;5068478;28;20035;-63
2023/12/20 10:32:27;;;;;;;66.85;60.33;;;32.00;99.90;;;;;;5068777;28;20107;-63
2023/12/20 10:34:55;;;;;;;74.70;67.55;;;32.00;99.90;;;;;;5068331;28;20039;-65
2023/12/20 10:37:22;;;;;;;56.53;46.85;;;32.00;99.90;;;;;;5070856;28;20092;-64
2023/12/20 10:39:55;;;;;;;63.75;57.72;;;31.90;99.90;;;;;;5068931;28;20040;-65
2023/12/20 10:42:27;;;;;;;53.45;48.40;;;31.70;99.90;;;;;;5070108;28;20036;-67
2023/12/20 10:44:53;;;;;;;52.95;48.17;;;31.80;99.90;;;;;;5071268;28;20021;-66
2023/12/20 10:47:20;;;;;;;60.45;54.58;;;31.70;99.90;;;;;;5070994;28;20470;-68
2023/12/20 10:49:48;;;;;;;51.40;46.67;;;31.70;99.90;;;;;;5068126;28;20028;-65
2023/12/20 10:52:14;;;;;;;47.38;42.67;;;31.60;99.90;;;;;;5070517;28;20032;-67
2023/12/20 10:54:41;;;;;;;57.90;52.35;;;31.50;99.90;;;;;;5068402;28;20032;-64
2023/12/20 10:57:09;;;;;;;54.85;49.53;;;31.40;99.90;;;;;;5041583;28;20143;-66
2023/12/20 10:59:38;;;;;;;54.90;49.30;;;31.30;99.90;;;;;;5040619;28;20097;-64
2023/12/20 11:02:06;;;;;;;52.35;44.92;;;31.20;99.90;;;;;;5039276;28;20022;-63
2023/12/20 11:04:54;;;;;;;64.65;57.55;;;31.10;99.90;;;;;;5040691;28;20420;-63
2023/12/20 11:07:32;;;;;;;68.15;60.88;;;31.10;99.90;;;;;;5041398;28;20057;-64
2023/12/20 11:10:22;;;;;;;62.38;50.95;;;31.00;99.90;;;;;;5043940;28;20031;-66
2023/12/20 11:13:01;;;;;;;66.28;59.53;;;31.00;99.90;;;;;;5044678;28;20440;-64
2023/12/20 11:15:29;;;;;;;71.68;64.00;;;30.90;99.90;;;;;;5041277;28;20365;-62
2023/12/20 11:17:56;;;;;;;73.57;62.90;;;30.90;99.90;;;;;;5040351;28;20137;-64
2023/12/20 11:20:24;;;;;;;56.05;50.42;;;30.80;99.90;;;;;;5047107;28;20022;-65
2023/12/20 11:22:54;;;;;;;48.70;44.15;;;30.70;99.90;;;;;;5039344;28;20021;-63
2023/12/20 11:25:21;;;;;;;68.30;61.45;;;30.60;99.90;;;;;;5040187;28;20474;-61
2023/12/20 11:28:09;;;;;;;74.50;66.47;;;30.60;99.90;;;;;;5040885;28;20467;-63
2023/12/20 11:30:49;;;;;;;97.32;78.30;;;30.50;99.90;;;;;;5035189;28;20022;-62
2023/12/20 11:33:16;;;;;;;63.80;56.55;;;30.50;99.90;;;;;;5026646;28;20057;-63
2023/12/20 11:35:45;;;;;;;74.40;66.82;;;30.50;99.90;;;;;;5025192;28;20526;-65
2023/12/20 11:38:14;;;;;;;53.55;48.05;;;30.40;99.90;;;;;;5025687;28;20383;-65
2023/12/20 11:40:43;;;;;;;57.92;51.60;;;30.40;99.90;;;;;;5031962;28;20026;-67
2023/12/20 11:43:10;;;;;;;76.47;68.72;;;30.50;99.90;;;;;;5026581;28;20097;-68
2023/12/20 11:45:36;;;;;;;72.80;64.93;;;30.50;99.90;;;;;;5031297;28;20038;-68
2023/12/20 11:48:03;;;;;;;79.57;71.05;;;30.50;99.90;;;;;;5027834;28;20549;-66
2023/12/20 11:50:30;;;;;;;70.68;62.72;;;30.40;99.90;;;;;;5028272;28;20091;-64
2023/12/20 11:52:57;;;;;;;75.93;67.15;;;30.40;99.90;;;;;;5026752;28;20033;-68
2023/12/20 11:55:24;;;;;;;84.55;72.00;;;30.30;99.90;;;;;;5026716;28;20026;-66
2023/12/20 11:57:51;;;;;;;72.97;60.20;;;30.30;99.90;;;;;;5027350;28;20025;-65
2023/12/20 12:00:19;;;;;;;67.07;59.55;;;30.30;99.90;;;;;;5033145;28;20030;-68
2023/12/20 12:02:56;;;;;;;54.72;48.40;;;30.20;99.90;;;;;;5027431;28;20087;-66
2023/12/20 12:05:23;;;;;;;66.47;56.67;;;30.30;99.90;;;;;;5025337;28;20029;-67
2023/12/20 12:07:49;;;;;;;67.47;57.63;;;30.30;99.90;;;;;;5027602;28;21343;-69
2023/12/20 12:10:16;;;;;;;54.83;48.30;;;30.30;99.90;;;;;;5032716;28;20462;-68
2023/12/20 12:12:43;;;;;;;57.05;45.53;;;30.30;99.90;;;;;;5032209;28;20108;-69
2023/12/20 12:15:09;;;;;;;61.50;46.35;;;30.20;99.90;;;;;;5029188;23;20111;-68
2023/12/20 12:17:36;;;;;;;74.97;57.50;;;30.20;99.90;;;;;;5036632;28;20495;-67
2023/12/20 12:20:05;;;;;;;69.45;61.97;;;30.20;99.90;;;;;;5035300;28;20033;-65
2023/12/20 12:22:32;;;;;;;54.30;48.78;;;30.20;99.90;;;;;;5031653;28;20482;-66
2023/12/20 12:25:11;;;;;;;49.58;44.05;;;30.10;99.90;;;;;;5033677;28;20033;-67
2023/12/20 12:27:38;;;;;;;50.90;45.47;;;30.10;99.90;;;;;;5033704;28;20075;-69
2023/12/20 12:30:24;;;;;;;81.38;66.38;;;30.10;99.90;;;;;;5033395;28;20028;-62
2023/12/20 12:32:52;;;;;;;50.65;45.38;;;30.00;99.90;;;;;;5031687;28;20061;-65
2023/12/20 12:35:19;;;;;;;67.28;56.17;;;30.00;99.90;;;;;;5033666;28;20025;-67
2023/12/20 12:37:46;;;;;;;48.63;43.53;;;29.90;99.90;;;;;;5033157;28;20465;-68